Westminster, United Kingdom
Current Conditions -  °F | °C
As of 7:20 PM on Friday 28 Nov 2014 (Local Time) from EGLC Reporting Station
Clear Clear  
Wind Chill: 52°   Ceiling: Unl
Heat Index: 52°   Visibility: 5mi
Dew Point: 50°   Wind: 12mph
Humidity: 94%   Direction: 80°E
Pressure: 29.71"   Gusts: NA
Location:  51.51°N, 0.16°W
Report Text: EGLC 281920Z 08010KT 8000 NSC 11/10 Q1006
Loading
Personal Weather Stations






























Interactive Weather Map New forecast layout! Learn more

10-Day Weather Forecast

Advertisements
Track Severe Weather on mobile